Flight Track Log - Related Links

Times and Time Zones

All times are in EDT time to prevent confusion due to time zone crossing. See the CSQ777 flight status page for this flight to view local times or setup timezone preferences in your user account.


Time Position Orientation Groundspeed Altitude Reporting Facility
EDT Latitude Longitude Course Direction KTS MPH feet Rate Location/Type
Thu 03:23:23 PM 24.8817 -77.9861 306° West 200 230 10,000  Level Miami Center
Thu 03:25:27 PM 24.9403 -78.0744 306° West 178 205 11,600 774 Climbing Miami Center
Thu 03:27:00 PM 24.9054 -78.1081 306° West  Level FlightAware Approximate
Thu 03:27:00 PM 24.9798 -78.1702 295° West  Level FlightAware Approximate
Thu 03:28:00 PM 24.9418 -78.1627 306° West  Level FlightAware Approximate
Thu 03:34:00 PM 25.2380 -78.5508 270° West  Level Estimated
Thu 03:35:00 PM 25.2748 -78.6053 310° West  Level Estimated
Thu 03:36:00 PM 25.3055 -78.6643 300° West  Level FlightAware Approximate
Thu 03:37:00 PM 25.3423 -78.7188 306° West  Level Estimated
Thu 03:38:00 PM 25.3778 -78.7745 305° West  Level FlightAware Approximate
Thu 03:39:00 PM 25.4132 -78.8301 305° West  Level FlightAware Approximate
Thu 03:40:00 PM 25.4486 -78.8859 305° West  Level FlightAware Approximate
Thu 03:41:00 PM 25.4840 -78.9416 305° West  Level FlightAware Approximate
Thu 03:42:00 PM 25.5194 -78.9974 305° West  Level FlightAware Approximate
Thu 03:43:00 PM 25.5547 -79.0532 305° West  Level FlightAware Approximate
Thu 03:44:00 PM 25.5900 -79.1090 305° West  Level FlightAware Approximate
Thu 03:45:00 PM 25.6253 -79.1649 305° West  Level FlightAware Approximate
Thu 03:46:00 PM 25.6606 -79.2208 305° West  Level FlightAware Approximate
Thu 03:47:00 PM 25.6974 -79.2755 294° West  Level Estimated
Thu 03:48:00 PM 25.7228 -79.3377 294° West  Level FlightAware Approximate
Thu 03:49:00 PM 25.7481 -79.3999 294° West  Level FlightAware Approximate
Thu 03:50:00 PM 25.7735 -79.4622 294° West  Level FlightAware Approximate
Thu 03:51:00 PM 25.7988 -79.5245 294° West  Level FlightAware Approximate
Thu 03:52:00 PM 25.8240 -79.5868 294° West  Level FlightAware Approximate
Thu 03:53:00 PM 25.8493 -79.6491 294° West  Level FlightAware Approximate
Thu 03:54:00 PM 25.8871 -79.7030 296° West  Level Estimated
Thu 03:55:00 PM 25.9123 -79.7654 294° West  Level FlightAware Approximate
Thu 03:56:00 PM 25.9374 -79.8279 294° West  Level FlightAware Approximate
Thu 03:57:00 PM 25.9626 -79.8903 294° West  Level FlightAware Approximate
Thu 03:58:00 PM 25.9877 -79.9528 294° West  Level FlightAware Approximate
Thu 03:59:00 PM 26.0128 -80.0153 294° West  Level FlightAware Approximate
Thu 04:00:00 PM 26.0378 -80.0778 294° West  Level FlightAware Approximate
Thu 04:01:00 PM 26.0769 -80.1308 305° West  Level Estimated
Thu 04:02:00 PM 26.1091 -80.1891 302° West  Level FlightAware Approximate
Thu 04:03:00 PM 26.1413 -80.2475 302° West  Level FlightAware Approximate
Thu 04:04:00 PM 26.1735 -80.3059 302° West  Level FlightAware Approximate
Thu 04:05:00 PM 26.2057 -80.3643 302° West  Level FlightAware Approximate
Thu 04:06:00 PM 26.2378 -80.4228 302° West  Level FlightAware Approximate
Thu 04:07:00 PM 26.2699 -80.4813 301° West  Level FlightAware Approximate
Thu 04:08:00 PM 26.3097 -80.5336 305° West  Level Estimated
Thu 04:09:00 PM 26.3440 -80.5906 304° West  Level FlightAware Approximate
Thu 04:10:00 PM 26.3783 -80.6476 304° West  Level FlightAware Approximate
Thu 04:11:00 PM 26.4125 -80.7047 304° West  Level FlightAware Approximate
Thu 04:12:00 PM 26.4468 -80.7618 304° West  Level FlightAware Approximate
Thu 04:13:00 PM 26.4810 -80.8189 304° West  Level FlightAware Approximate
Thu 04:14:00 PM 26.5152 -80.8761 304° West  Level FlightAware Approximate
Thu 04:15:00 PM 26.5493 -80.9332 304° West  Level FlightAware Approximate
Thu 04:16:00 PM 26.5835 -80.9905 304° West  Level FlightAware Approximate
Thu 04:17:00 PM 26.6176 -81.0477 304° West  Level FlightAware Approximate
Thu 04:18:00 PM 26.6517 -81.1050 304° West  Level FlightAware Approximate
Thu 04:19:00 PM 26.6857 -81.1623 304° West  Level FlightAware Approximate
Thu 04:20:00 PM 26.7198 -81.2197 304° West  Level FlightAware Approximate
Thu 04:21:00 PM 26.7538 -81.2771 304° West  Level FlightAware Approximate
Thu 04:22:00 PM 26.7878 -81.3345 304° West  Level FlightAware Approximate
Thu 04:23:00 PM 26.8300 -81.3847 312° West  Level Estimated
Thu 04:24:00 PM 26.8722 -81.4348 314° West  Level Estimated
Thu 04:25:00 PM 26.9118 -81.4877 310° West  Level FlightAware Approximate
Thu 04:26:00 PM 26.9513 -81.5405 310° West  Level FlightAware Approximate
Thu 04:27:00 PM 26.9937 -81.5906 315° West  Level Estimated
Thu 04:28:00 PM 27.0369 -81.6398 315° West  Level FlightAware Approximate
Thu 04:29:00 PM 27.0800 -81.6890 315° West  Level FlightAware Approximate
Thu 04:30:00 PM 27.1222 -81.7393 307° West  Level Estimated
Thu 04:31:00 PM 27.1645 -81.7896 318° Northwest  Level Estimated
Thu 04:32:00 PM 27.2085 -81.8379 316° Northwest  Level FlightAware Approximate
Thu 04:33:00 PM 27.2506 -81.8883 309° West  Level Estimated
Thu 04:34:00 PM 27.2910 -81.9405 311° West  Level FlightAware Approximate
Thu 04:35:00 PM 27.3332 -81.9909 314° West  Level Estimated
Thu 04:36:00 PM 27.3750 -82.0418 313° West  Level FlightAware Approximate
Thu 04:37:00 PM 27.4167 -82.0927 313° West  Level FlightAware Approximate
Thu 04:38:00 PM 27.4589 -82.1432 307° West  Level Estimated
Thu 04:39:00 PM 27.5010 -82.1937 310° West  Level Estimated
Thu 04:40:00 PM 27.5430 -82.2444 313° West  Level FlightAware Approximate
Thu 04:41:00 PM 27.5850 -82.2951 313° West  Level FlightAware Approximate
Thu 04:42:00 PM 27.6271 -82.3457 312° West  Level Estimated
Thu 04:43:00 PM 27.6692 -82.3964 318° Northwest  Level Estimated
Thu 04:44:00 PM 27.7113 -82.4471 310° West  Level Estimated
Thu 04:45:00 PM 27.7535 -82.4976 313° West  Level FlightAware Approximate
Thu 04:46:00 PM 27.7955 -82.5485 312° West  Level Estimated
Thu 04:47:00 PM 27.8374 -82.5993 310° West  Level Estimated
Thu 04:48:00 PM 27.8793 -82.6503 North  Level Estimated
Thu 04:49:00 PM 27.9100 -82.6875 305° West  Level Estimated
Thu 04:50:00 PM 27.9100 -82.6875 North  Level Estimated
Thu 04:51:00 PM 27.9100 -82.6875 160° South  Level Estimated
Thu 04:52:00 PM 27.9100 -82.6875 North  Level Estimated
Thu 04:53:00 PM 27.9100 -82.6875 160° South  Level Estimated
Thu 04:54:00 PM 27.9100 -82.6875 North  Level Estimated
Thu 04:55:00 PM 27.9100 -82.6875 160° South  Level Estimated
Thu 04:56:00 PM 27.9100 -82.6875 North  Level Estimated
Thu 04:57:00 PM 27.9100 -82.6875 160° South  Level Estimated
Thu 04:58:00 PM 27.9100 -82.6875 North  Level Estimated
Thu 04:59:00 PM 27.9100 -82.6875 160° South  Level Estimated
Thu 05:00:00 PM 27.9100 -82.6875 North  Level Estimated
Thu 05:01:00 PM 27.9100 -82.6875 160° South  Level Estimated
Thu 05:02:00 PM 27.9100 -82.6875 North  Level Estimated
Thu 05:03:00 PM 27.9100 -82.6875 160° South  Level Estimated
Thu 05:04:00 PM 27.9100 -82.6875 North  Level Estimated
Thu 05:05:00 PM 27.9100 -82.6875 160° South  Level Estimated
Thu 05:06:00 PM 27.9100 -82.6875 North  Level Estimated

Login

Don't have an account? Register now (free) for customized features, flight alerts, and more!